createdAt,value
2022-09-03T00:01:55.926Z,5.33
2022-09-03T00:04:37.702Z,5.80
2022-09-03T00:07:10.220Z,4.93
2022-09-03T00:09:45.471Z,5.20
2022-09-03T00:12:29.824Z,5.37
2022-09-03T00:15:08.337Z,4.33
2022-09-03T00:17:41.510Z,4.60
2022-09-03T00:20:20.201Z,2.95
2022-09-03T00:22:52.955Z,7.05
2022-09-03T00:25:25.538Z,6.37
2022-09-03T00:27:59.482Z,5.45
2022-09-03T00:30:31.378Z,3.60
2022-09-03T00:33:14.049Z,2.58
2022-09-03T00:38:13.762Z,5.50
2022-09-03T00:40:55.365Z,4.47
2022-09-03T00:43:44.348Z,3.92
2022-09-03T00:46:20.143Z,6.45
2022-09-03T00:48:55.471Z,3.05
2022-09-03T00:51:29.861Z,4.72
2022-09-03T00:54:22.052Z,2.22
2022-09-03T00:57:00.441Z,5.43
2022-09-03T00:59:33.067Z,3.70
2022-09-03T01:02:14.598Z,2.98
2022-09-03T01:04:59.445Z,3.37
2022-09-03T01:07:40.575Z,1.82
2022-09-03T01:10:26.096Z,4.20
2022-09-03T01:13:01.262Z,6.45
2022-09-03T01:15:45.941Z,4.50
2022-09-03T01:18:30.223Z,4.83
2022-09-03T01:21:29.883Z,5.55
2022-09-03T01:24:14.097Z,7.72
2022-09-03T01:27:20.724Z,5.57
2022-09-03T01:30:12.877Z,9.15
2022-09-03T01:32:45.493Z,5.27
2022-09-03T01:35:20.999Z,4.60
2022-09-03T01:38:10.242Z,4.87
2022-09-03T01:40:57.534Z,7.30
2022-09-03T01:43:31.792Z,6.72
2022-09-03T01:46:13.578Z,8.45
2022-09-03T01:48:46.713Z,8.05
2022-09-03T01:51:28.386Z,5.62
2022-09-03T01:54:20.802Z,8.67
2022-09-03T01:57:36.924Z,6.70
2022-09-03T02:00:02.784Z,5.95
2022-09-03T02:02:35.676Z,5.25
2022-09-03T02:05:10.144Z,7.22
2022-09-03T02:07:52.595Z,8.13
2022-09-03T02:12:58.218Z,12.80
2022-09-03T02:15:30.760Z,9.55
2022-09-03T02:18:04.126Z,5.67
2022-09-03T02:20:35.105Z,4.50
2022-09-03T02:25:43.425Z,6.50
2022-09-03T02:28:17.555Z,6.85
2022-09-03T02:30:48.072Z,11.95
2022-09-03T02:33:19.165Z,5.83
2022-09-03T02:35:49.042Z,6.90
2022-09-03T02:38:21.701Z,5.83
2022-09-03T02:40:51.164Z,7.60
2022-09-03T02:43:26.380Z,4.70
2022-09-03T02:45:59.136Z,6.67
2022-09-03T02:48:30.017Z,7.67
2022-09-03T02:50:59.510Z,5.62
2022-09-03T02:53:29.120Z,4.08
2022-09-03T02:56:01.034Z,5.62
2022-09-03T02:58:31.803Z,7.93
2022-09-03T03:01:01.433Z,13.18
2022-09-03T03:03:33.839Z,6.10
2022-09-03T03:06:05.779Z,6.37
2022-09-03T03:08:35.379Z,4.53
2022-09-03T03:11:05.105Z,10.90
2022-09-03T03:13:35.274Z,6.60
2022-09-03T03:16:07.384Z,5.58
2022-09-03T03:18:36.917Z,4.43
2022-09-03T03:21:11.168Z,7.85
2022-09-03T03:23:41.865Z,6.63
2022-09-03T03:26:13.963Z,6.03
2022-09-03T03:28:43.486Z,8.93
2022-09-03T03:31:15.345Z,7.22
2022-09-03T03:33:45.955Z,6.03
2022-09-03T03:36:17.437Z,6.35
2022-09-03T03:38:47.734Z,4.47
2022-09-03T03:41:21.947Z,5.15
2022-09-03T03:43:56.317Z,6.25
2022-09-03T03:46:28.565Z,5.28
2022-09-03T03:48:58.368Z,4.37
2022-09-03T03:51:28.768Z,8.98
2022-09-03T03:54:05.063Z,5.72
2022-09-03T03:56:32.734Z,7.35
2022-09-03T03:59:02.961Z,8.08
2022-09-03T04:01:32.862Z,7.22
2022-09-03T04:04:03.216Z,9.05
2022-09-03T04:06:32.811Z,7.80
2022-09-03T04:09:02.235Z,7.58
2022-09-03T04:11:31.722Z,6.08
2022-09-03T04:14:02.695Z,6.87
2022-09-03T04:16:33.109Z,5.53
2022-09-03T04:19:02.607Z,4.72
2022-09-03T04:21:33.090Z,9.85
2022-09-03T04:24:04.103Z,6.35
2022-09-03T04:26:35.402Z,9.75
2022-09-03T04:29:07.839Z,6.10
2022-09-03T04:31:39.074Z,7.78
2022-09-03T04:34:10.904Z,9.00
2022-09-03T04:36:40.356Z,4.37
2022-09-03T04:39:09.815Z,6.97
2022-09-03T04:41:39.337Z,6.75
2022-09-03T04:44:08.842Z,6.42
2022-09-03T04:46:39.648Z,6.20
2022-09-03T04:49:09.806Z,5.95
2022-09-03T04:51:39.352Z,9.10
2022-09-03T04:54:10.336Z,7.83
2022-09-03T04:56:41.642Z,5.60
2022-09-03T04:59:11.158Z,9.08
2022-09-03T05:01:43.325Z,4.78
2022-09-03T05:04:13.529Z,8.93
2022-09-03T05:06:43.462Z,9.85
2022-09-03T05:09:12.974Z,6.87
2022-09-03T05:11:42.453Z,5.17
2022-09-03T05:14:13.030Z,6.20
2022-09-03T05:16:42.765Z,10.77
2022-09-03T05:19:13.813Z,9.00
2022-09-03T05:21:43.273Z,4.33
2022-09-03T05:24:12.713Z,7.72
2022-09-03T05:26:42.240Z,6.40
2022-09-03T05:29:11.874Z,5.95
2022-09-03T05:31:41.690Z,6.97
2022-09-03T05:34:16.649Z,5.87
2022-09-03T05:36:42.413Z,8.95
2022-09-03T05:39:11.885Z,9.73
2022-09-03T05:41:43.297Z,9.10
2022-09-03T05:44:12.426Z,8.68
2022-09-03T05:46:41.998Z,6.95
2022-09-03T05:49:12.209Z,7.12
2022-09-03T05:51:42.762Z,10.28
2022-09-03T05:54:12.282Z,6.12
2022-09-03T05:56:43.644Z,9.87
2022-09-03T05:59:13.786Z,9.68
2022-09-03T06:01:51.564Z,22.20
2022-09-03T06:04:18.026Z,56.37
2022-09-03T06:06:49.143Z,81.22
2022-09-03T06:09:21.027Z,68.17
2022-09-03T06:11:54.150Z,58.70
2022-09-03T06:14:23.730Z,35.65
2022-09-03T06:16:53.426Z,19.35
2022-09-03T06:19:23.440Z,15.72
2022-09-03T06:21:52.883Z,7.35
2022-09-03T06:24:28.147Z,6.95
2022-09-03T06:26:58.505Z,7.92
2022-09-03T06:29:28.442Z,7.97
2022-09-03T06:31:58.180Z,8.38
2022-09-03T06:34:28.926Z,9.08
2022-09-03T06:37:00.230Z,5.72
2022-09-03T06:39:30.084Z,7.45
2022-09-03T06:41:59.609Z,9.88
2022-09-03T06:44:30.791Z,6.37
2022-09-03T06:47:02.290Z,8.05
2022-09-03T06:49:31.716Z,6.00
2022-09-03T06:52:01.192Z,5.45
2022-09-03T06:54:30.661Z,6.67
2022-09-03T06:57:00.100Z,5.87
2022-09-03T06:59:29.634Z,7.85
2022-09-03T07:02:00.847Z,6.97
2022-09-03T07:04:31.331Z,8.93
2022-09-03T07:07:02.306Z,5.78
2022-09-03T07:09:33.427Z,7.37
2022-09-03T07:12:03.026Z,6.78
2022-09-03T07:14:32.646Z,7.05
2022-09-03T07:17:03.759Z,4.90
2022-09-03T07:19:33.206Z,5.80
2022-09-03T07:22:03.800Z,10.23
2022-09-03T07:24:33.274Z,8.25
2022-09-03T07:27:03.134Z,6.60
2022-09-03T07:29:32.629Z,8.73
2022-09-03T07:32:03.327Z,7.12
2022-09-03T07:34:34.513Z,5.62
2022-09-03T07:37:05.738Z,4.47
2022-09-03T07:39:36.575Z,5.55
2022-09-03T07:42:07.916Z,7.05
2022-09-03T07:44:37.432Z,6.95
2022-09-03T07:47:07.128Z,4.58
2022-09-03T07:49:36.666Z,4.87
2022-09-03T07:52:08.290Z,5.20
2022-09-03T07:54:39.398Z,4.62
2022-09-03T07:57:08.916Z,4.65
2022-09-03T07:59:38.363Z,4.90
2022-09-03T08:02:09.391Z,7.37
2022-09-03T08:04:38.880Z,7.70
2022-09-03T08:07:08.473Z,3.15
2022-09-03T08:09:38.440Z,3.27
2022-09-03T08:12:08.157Z,5.60
2022-09-03T08:14:38.474Z,4.45
2022-09-03T08:17:08.722Z,6.15
2022-09-03T08:19:38.177Z,7.22
2022-09-03T08:22:07.628Z,4.80
2022-09-03T08:24:37.084Z,3.70
2022-09-03T08:27:06.827Z,5.97
2022-09-03T08:29:37.315Z,5.30
2022-09-03T08:32:06.778Z,5.33
2022-09-03T08:34:36.294Z,8.35
2022-09-03T08:37:07.556Z,3.37
2022-09-03T08:39:37.070Z,4.53
2022-09-03T08:42:22.630Z,7.70
2022-09-03T08:44:56.250Z,5.22
2022-09-03T08:47:37.994Z,6.10
2022-09-03T08:50:20.053Z,4.35
2022-09-03T08:53:09.841Z,7.42
2022-09-03T08:55:57.767Z,6.47
2022-09-03T08:58:28.607Z,3.12
2022-09-03T09:01:19.329Z,3.55
2022-09-03T09:04:00.507Z,4.28
2022-09-03T09:06:42.269Z,5.50
2022-09-03T09:09:32.221Z,4.22
2022-09-03T09:12:15.959Z,4.23
2022-09-03T09:17:24.894Z,5.50
2022-09-03T09:20:09.781Z,4.08
2022-09-03T09:22:48.414Z,3.65
2022-09-03T09:25:22.153Z,2.17
2022-09-03T09:28:04.029Z,3.95
2022-09-03T09:30:34.167Z,4.87
2022-09-03T09:33:03.776Z,3.80
2022-09-03T09:35:33.368Z,4.67
2022-09-03T09:38:02.901Z,4.28
2022-09-03T09:40:45.141Z,3.58
2022-09-03T09:43:17.592Z,3.37
2022-09-03T09:45:49.375Z,4.05
2022-09-03T09:48:26.438Z,2.50
2022-09-03T09:51:07.395Z,3.83
2022-09-03T09:53:37.509Z,6.10
2022-09-03T09:56:07.768Z,2.95
2022-09-03T09:58:37.353Z,4.77
2022-09-03T10:01:15.673Z,4.37
2022-09-03T10:04:00.065Z,4.70
2022-09-03T10:06:51.330Z,4.20
2022-09-03T10:09:31.092Z,6.17
2022-09-03T10:12:17.805Z,3.33
2022-09-03T10:15:05.088Z,3.98
2022-09-03T10:18:06.435Z,5.30
2022-09-03T10:20:47.812Z,3.25
2022-09-03T10:23:23.241Z,4.50
2022-09-03T10:26:10.634Z,2.77
2022-09-03T10:28:43.419Z,5.35
2022-09-03T10:31:36.741Z,5.15
2022-09-03T10:34:12.267Z,2.83
2022-09-03T10:36:51.106Z,4.33
2022-09-03T10:39:32.717Z,4.78
2022-09-03T10:42:15.854Z,4.30
2022-09-03T10:45:20.281Z,5.22
2022-09-03T10:48:07.553Z,7.10
2022-09-03T10:50:55.204Z,5.92
2022-09-03T10:53:28.200Z,4.03
2022-09-03T10:56:09.850Z,3.10
2022-09-03T10:58:42.459Z,4.58
2022-09-03T11:01:27.441Z,3.58
2022-09-03T11:04:04.213Z,3.65
2022-09-03T11:06:37.114Z,5.25
2022-09-03T11:09:25.008Z,4.20
2022-09-03T11:11:57.508Z,4.35
2022-09-03T11:14:45.815Z,2.98
2022-09-03T11:17:18.713Z,5.03
2022-09-03T11:19:51.327Z,4.37
2022-09-03T11:22:23.385Z,4.22
2022-09-03T11:24:58.696Z,2.55
2022-09-03T11:27:34.200Z,4.05
2022-09-03T11:30:11.709Z,2.40
2022-09-03T11:33:00.741Z,3.95
2022-09-03T11:35:36.052Z,3.10
2022-09-03T11:38:10.772Z,5.12
2022-09-03T11:40:43.281Z,3.25
2022-09-03T11:43:31.085Z,4.33
2022-09-03T11:46:15.396Z,4.30
2022-09-03T11:48:47.744Z,6.75
2022-09-03T11:51:22.948Z,3.30
2022-09-03T11:54:01.291Z,2.95
2022-09-03T11:56:32.868Z,2.37
2022-09-03T11:59:17.474Z,4.05
2022-09-03T12:01:53.433Z,2.90
2022-09-03T12:04:26.053Z,4.70
2022-09-03T12:07:07.800Z,3.37
2022-09-03T12:09:43.761Z,5.83
2022-09-03T12:12:33.906Z,2.70
2022-09-03T12:15:32.362Z,3.90
2022-09-03T12:18:19.846Z,5.80
2022-09-03T12:20:55.719Z,6.47
2022-09-03T12:23:36.600Z,5.17
2022-09-03T12:26:09.192Z,2.75
2022-09-03T12:28:44.358Z,4.35
2022-09-03T12:31:25.688Z,2.80
2022-09-03T12:34:04.237Z,3.90
2022-09-03T12:36:42.629Z,3.27
2022-09-03T12:40:05.034Z,3.08
2022-09-03T12:42:03.978Z,7.90
2022-09-03T12:44:40.236Z,5.78
2022-09-03T12:49:49.153Z,2.95
2022-09-03T12:52:33.618Z,5.30
2022-09-03T12:55:12.827Z,4.25
2022-09-03T12:57:48.170Z,2.52
2022-09-03T13:00:19.855Z,5.40
2022-09-03T13:02:52.724Z,7.87
2022-09-03T13:05:31.608Z,3.83
2022-09-03T13:08:04.250Z,4.55
2022-09-03T13:10:38.108Z,3.20
2022-09-03T13:13:10.642Z,10.30
2022-09-03T13:15:40.353Z,4.85
2022-09-03T13:18:34.237Z,2.70
2022-09-03T13:21:22.384Z,4.34
2022-09-03T13:24:28.972Z,4.85
2022-09-03T13:27:26.023Z,3.08
2022-09-03T13:30:12.334Z,4.30
2022-09-03T13:33:02.944Z,3.50
2022-09-03T13:35:41.845Z,4.78
2022-09-03T13:38:28.768Z,2.77
2022-09-03T13:41:36.678Z,26.80
2022-09-03T13:44:42.779Z,4.03
2022-09-03T13:47:30.609Z,3.62
2022-09-03T13:50:24.117Z,4.50
2022-09-03T13:52:59.592Z,3.35
2022-09-03T13:55:37.955Z,9.55
2022-09-03T13:58:13.162Z,3.15
2022-09-03T14:00:54.505Z,3.05
2022-09-03T14:03:36.349Z,3.85
2022-09-03T14:06:28.563Z,3.72
2022-09-03T14:09:07.499Z,2.90
2022-09-03T14:11:56.159Z,5.50
2022-09-03T14:14:51.494Z,3.00
2022-09-03T14:17:29.773Z,3.67
2022-09-03T14:20:06.033Z,3.50
2022-09-03T14:22:53.538Z,3.60
2022-09-03T14:25:25.958Z,4.08
2022-09-03T14:27:58.754Z,2.60
2022-09-03T14:30:55.707Z,2.77
2022-09-03T14:33:45.076Z,4.10
2022-09-03T14:36:29.765Z,3.83
2022-09-03T14:39:26.802Z,3.35
2022-09-03T14:42:00.498Z,2.92
2022-09-03T14:44:55.911Z,3.72
2022-09-03T14:47:46.247Z,5.10
2022-09-03T14:50:39.398Z,5.22
2022-09-03T14:53:14.787Z,2.92
2022-09-03T14:55:59.095Z,4.00
2022-09-03T14:58:40.224Z,2.87
2022-09-03T15:01:16.111Z,3.27
2022-09-03T15:03:48.675Z,3.80
2022-09-03T15:06:37.947Z,2.65
2022-09-03T15:09:34.920Z,5.60
2022-09-03T15:12:22.425Z,3.22
2022-09-03T15:14:58.890Z,3.05
2022-09-03T15:17:49.466Z,3.22
2022-09-03T15:20:31.558Z,3.33
2022-09-03T15:26:47.114Z,2.40
2022-09-03T15:29:38.734Z,6.58
2022-09-03T15:32:17.095Z,2.90
2022-09-03T15:34:52.264Z,2.62
2022-09-03T15:37:30.639Z,2.30
2022-09-03T15:40:15.167Z,5.50
2022-09-03T15:42:47.471Z,3.60
2022-09-03T15:45:35.359Z,3.55
2022-09-03T15:48:10.740Z,2.77
2022-09-03T15:50:53.098Z,2.87
2022-09-03T15:53:40.595Z,3.97
2022-09-03T15:56:18.742Z,7.55
2022-09-03T15:59:02.586Z,15.48
2022-09-03T16:01:43.785Z,6.78
2022-09-03T16:04:20.530Z,4.90
2022-09-03T16:07:01.342Z,3.05
2022-09-03T16:10:24.252Z,5.67
2022-09-03T16:12:59.380Z,12.23
2022-09-03T16:15:37.939Z,20.07
2022-09-03T16:18:13.714Z,4.40
2022-09-03T16:20:46.237Z,4.03
2022-09-03T16:23:26.155Z,3.75
2022-09-03T16:26:00.545Z,3.20
2022-09-03T16:28:42.350Z,3.60
2022-09-03T16:31:40.017Z,4.43
2022-09-03T16:34:30.083Z,6.70
2022-09-03T16:37:02.557Z,4.00
2022-09-03T16:39:53.089Z,2.77
2022-09-03T16:42:34.569Z,3.47
2022-09-03T16:45:41.859Z,4.28
2022-09-03T16:48:23.069Z,3.02
2022-09-03T16:51:11.698Z,4.78
2022-09-03T16:54:04.934Z,4.67
2022-09-03T16:59:19.400Z,4.12
2022-09-03T17:02:39.305Z,3.45
2022-09-03T17:04:54.351Z,3.50
2022-09-03T17:07:56.082Z,5.40
2022-09-03T17:10:29.077Z,4.62
2022-09-03T17:13:26.126Z,4.58
2022-09-03T17:15:58.963Z,7.25
2022-09-03T17:18:43.527Z,4.00
2022-09-03T17:21:34.576Z,6.42
2022-09-03T17:24:10.143Z,2.70
2022-09-03T17:26:48.712Z,4.30
2022-09-03T17:29:40.693Z,3.22
2022-09-03T17:32:26.837Z,3.55
2022-09-03T17:35:18.667Z,2.92
2022-09-03T17:37:56.768Z,2.67
2022-09-03T17:41:03.814Z,3.30
2022-09-03T17:44:03.447Z,4.03
2022-09-03T17:46:42.020Z,4.42
2022-09-03T17:49:14.607Z,7.05
2022-09-03T17:51:53.096Z,2.58
2022-09-03T17:54:34.563Z,3.03
2022-09-03T17:57:13.345Z,4.53
2022-09-03T17:59:52.229Z,3.08
2022-09-03T18:02:45.955Z,5.22
2022-09-03T18:05:21.275Z,3.67
2022-09-03T18:08:06.962Z,3.15
2022-09-03T18:10:55.670Z,2.40
2022-09-03T18:13:31.163Z,2.47
2022-09-03T18:16:06.535Z,4.25
2022-09-03T18:18:39.194Z,3.60
2022-09-03T18:21:31.730Z,4.80
2022-09-03T18:24:23.588Z,3.27
2022-09-03T18:27:13.919Z,3.08
2022-09-03T18:30:19.427Z,3.17
2022-09-03T18:33:07.226Z,5.85
2022-09-03T18:35:55.985Z,6.87
2022-09-03T18:38:49.372Z,5.80
2022-09-03T18:42:05.789Z,5.25
2022-09-03T18:45:12.236Z,3.70
2022-09-03T18:48:18.119Z,6.40
2022-09-03T18:51:07.513Z,5.00
2022-09-03T18:54:25.018Z,6.70
2022-09-03T18:57:13.255Z,4.53
2022-09-03T19:00:09.699Z,5.40
2022-09-03T19:03:21.265Z,5.92
2022-09-03T19:06:31.586Z,6.58
2022-09-03T19:09:20.332Z,7.05
2022-09-03T19:12:10.914Z,8.88
2022-09-03T19:15:19.810Z,8.85
2022-09-03T19:18:34.658Z,8.45
2022-09-03T19:21:37.349Z,8.35
2022-09-03T19:24:25.076Z,6.97
2022-09-03T19:27:52.976Z,6.70
2022-09-03T19:30:26.734Z,10.85
2022-09-03T19:33:20.080Z,7.50
2022-09-03T19:36:36.891Z,8.60
2022-09-03T19:39:50.384Z,12.63
2022-09-03T19:42:58.479Z,8.28
2022-09-03T19:45:54.137Z,12.30
2022-09-03T19:49:05.121Z,11.95
2022-09-03T19:51:58.655Z,12.63
2022-09-03T19:54:48.622Z,9.80
2022-09-03T19:57:38.123Z,12.07
2022-09-03T20:00:29.538Z,11.40
2022-09-03T20:03:17.699Z,9.68
2022-09-03T20:06:10.263Z,10.68
2022-09-03T20:08:55.061Z,8.55
2022-09-03T20:11:28.109Z,11.20
2022-09-03T20:14:16.048Z,10.38
2022-09-03T20:17:04.903Z,11.08
2022-09-03T20:20:06.252Z,11.18
2022-09-03T20:22:44.731Z,8.48
2022-09-03T20:25:23.669Z,9.55
2022-09-03T20:27:59.120Z,13.45
2022-09-03T20:31:03.796Z,9.27
2022-09-03T20:33:54.583Z,10.30
2022-09-03T20:36:52.539Z,8.15
2022-09-03T20:39:43.157Z,7.53
2022-09-03T20:42:48.902Z,11.97
2022-09-03T20:45:21.520Z,11.73
2022-09-03T20:48:13.719Z,11.90
2022-09-03T20:50:53.298Z,10.90
2022-09-03T20:53:51.556Z,11.75
2022-09-03T20:56:43.788Z,13.43
2022-09-03T20:59:49.530Z,11.05
2022-09-03T21:02:48.666Z,13.03
2022-09-03T21:05:33.871Z,10.72
2022-09-03T21:08:15.091Z,9.45
2022-09-03T21:10:50.466Z,9.85
2022-09-03T21:13:40.470Z,7.95
2022-09-03T21:16:27.843Z,10.25
2022-09-03T21:19:12.321Z,9.40
2022-09-03T21:21:56.534Z,8.37
2022-09-03T21:24:31.085Z,4.70
2022-09-03T21:27:05.998Z,7.08
2022-09-03T21:29:44.470Z,5.40
2022-09-03T21:32:25.536Z,7.25
2022-09-03T21:35:26.946Z,6.33
2022-09-03T21:38:05.575Z,5.78
2022-09-03T21:40:38.209Z,7.00
2022-09-03T21:43:17.586Z,7.95
2022-09-03T21:45:56.257Z,5.30
2022-09-03T21:48:49.566Z,8.88
2022-09-03T21:51:49.987Z,6.17
2022-09-03T21:54:25.272Z,6.05
2022-09-03T21:57:17.543Z,5.97
2022-09-03T22:00:09.586Z,6.62
2022-09-03T22:02:42.254Z,7.55
2022-09-03T22:05:11.938Z,7.15
2022-09-03T22:08:01.008Z,4.92
2022-09-03T22:10:33.483Z,4.75
2022-09-03T22:13:25.649Z,4.37
2022-09-03T22:15:58.398Z,6.80
2022-09-03T22:18:31.450Z,5.50
2022-09-03T22:21:08.365Z,4.45
2022-09-03T22:24:05.277Z,5.08
2022-09-03T22:30:50.367Z,7.08
2022-09-03T22:33:32.721Z,5.42
2022-09-03T22:36:23.209Z,4.20
2022-09-03T22:38:58.619Z,5.20
2022-09-03T22:41:39.891Z,4.35
2022-09-03T22:44:21.186Z,4.12
2022-09-03T22:47:14.719Z,5.03
2022-09-03T22:50:12.961Z,4.50
2022-09-03T22:52:57.297Z,6.03
2022-09-03T22:55:27.516Z,5.20
2022-09-03T22:58:05.992Z,9.70
2022-09-03T23:00:41.234Z,4.42
2022-09-03T23:03:13.753Z,6.87
2022-09-03T23:05:53.149Z,5.62
2022-09-03T23:08:39.287Z,5.40
2022-09-03T23:11:11.822Z,4.05
2022-09-03T23:13:47.109Z,6.45
2022-09-03T23:16:22.411Z,77.72
2022-09-03T23:18:53.384Z,5.53
2022-09-03T23:21:41.825Z,5.33
2022-09-03T23:24:38.284Z,6.72
2022-09-03T23:27:11.778Z,6.30
2022-09-03T23:29:44.572Z,7.00
2022-09-03T23:32:14.999Z,6.72
2022-09-03T23:34:44.683Z,5.87
2022-09-03T23:37:34.893Z,7.08
2022-09-03T23:40:13.228Z,5.08
2022-09-03T23:42:54.763Z,8.65
2022-09-03T23:45:46.798Z,7.42
2022-09-03T23:48:37.631Z,7.30
2022-09-03T23:51:16.088Z,7.70
2022-09-03T23:54:14.181Z,7.93
2022-09-03T23:57:09.924Z,9.58
